Tawas City, Michigan
Current Conditions -  °F | °C
As of 11:33 PM on Thursday 18 Dec 2014 (Local Time) from KOSC Reporting Station
Clear Clear  
Wind Chill:   Ceiling: Unl
Heat Index: 17°   Visibility: 10mi
Dew Point: 14°   Wind: 6mph
Humidity: 89%   Direction: 300°WNW
Pressure: 30.2"   Gusts: NA
Location:  44.27°N, 83.52°W
Report Text: KOSC 190433Z AUTO 30005KT 10SM CLR M08/M10 A3020 RMK AO2 T10851100
Loading
Personal Weather Stations






























Interactive Weather Map New forecast layout! Learn more

10-Day Weather Forecast

Advertisements
Track Severe Weather on mobile